Oak Harbor, WA

9:39 AM PDT on August 30, 2015 (GMT -0700)
Columbia Drive - RWNE.com | | Change Station
CLOSE
Current Station
Personal Weather Station
Location: Oak Harbor, WA
Elevation: 171 ft
Nearby Weather Stations

Elev 171 ft 48.30 °N, 122.67 °W | Updated 4 minutes ago

Overcast
Overcast
58.1 °F
Feels Like 58.1 °F
N
5.3
Wind Variable Wind from ESE

Today
High -- | Low -- °F
--% Chance of Precip.
Yesterday
High -- | Low -- °F
Precip. -- in
6:25 AM 7:56 PM
Full, 99% visible
Pressure 29.87 in
Visibility 10.0 miles
Clouds Scattered Clouds 1600 ft
Scattered Clouds 4000 ft
Mostly Cloudy 8000 ft
Mostly Cloudy 25000 ft
Dew Point 56 °F
Humidity 91%
Rainfall 0.00 in
Snow Depth Not available.
UV 1 out of 12
Pollen .50 out of 12
Air Quality Not available.
Flu Activity Not available.
METAR KNUW 301556Z 15010KT 10SM SCT016 SCT040 BKN080 BKN250 15/13 A2987 RMK AO2 SLP115 T01500128
Pressure 29.87 in
Visibility 10.0 miles
Clouds Scattered Clouds 1600 ft
Scattered Clouds 4000 ft
Mostly Cloudy 8000 ft
Mostly Cloudy 25000 ft
Dew Point 56 °F
Humidity 91%
Rainfall 0.00 in
Snow Depth Not available.
UV 1 out of 12
Pollen .50 out of 12
Air Quality Not available.
Flu Activity Not available.
METAR KNUW 301556Z 15010KT 10SM SCT016 SCT040 BKN080 BKN250 15/13 A2987 RMK AO2 SLP115 T01500128

10-Day Weather Forecast

×

Almanac

Astronomy

Aug. 30, 2015 Rise Set
Actual Time
Civil Twilight
Nautical Twilight
Astronomical Twilight
Moon
Length of Visible Light
Length of Day
Tomorrow will be .
, % of the Moon is Illuminated

Today's Extremes

State Highs State Lows

Community

WunderPhotos

Upload Photos

1,851,008 photos uploaded!

WunderBlogs® & News

Nearby

Air Quality

  Air Quality AQ Index Pollutant
Not available.

Snow Depth

Station Depth Elevation

Earthquake Activity

City Distance Mag. Time & Date
Minimum magnitude displayed is 2.5.

Coastal Water Temperatures

Place Temperature

Stations

Nearby Weather Stations

Station Location Temp. Windchill Dew Point Humidity Wind Precip. Elev Updated Type